METAR AND TAF INFORMATION
METAR FOR VTBS
ADDS - METARS form results

(1153 UTC 25 May 2020)
Data provider http://aviationweather.gov/metar/data/
 
METAR text: VTBS 251130Z 19005KT 9000 FEW020 31/25 Q1009 NOSIG
Conditions at: VTBS (CHON BURI/SATTAH, TH) observed 1130 UTC 25 May 2020
Temperature: 31.0°C (88°F)
Dewpoint: 25.0°C (77°F) [RH = 71%]
Pressure (altimeter): 29.79 inches Hg (1009.0 mb)
Winds: from the S (190 degrees) at 6 MPH (5 knots; 2.6 m/s)
Visibility: 6 miles ( 9 km)
Ceiling: at least 12,000 feet AGL
Clouds: few clouds at 2000 feet AGL
Weather: no significant weather observed at this time

METAR text: VTBS 251100Z 18005KT 9000 FEW020 31/25 Q1009 NOSIG
Conditions at: VTBS (CHON BURI/SATTAH, TH) observed 1100 UTC 25 May 2020
Temperature: 31.0°C (88°F)
Dewpoint: 25.0°C (77°F) [RH = 71%]
Pressure (altimeter): 29.79 inches Hg (1009.0 mb)
Winds: from the S (180 degrees) at 6 MPH (5 knots; 2.6 m/s)
Visibility: 6 miles ( 9 km)
Ceiling: at least 12,000 feet AGL
Clouds: few clouds at 2000 feet AGL
Weather: no significant weather observed at this time

Forecast for: VTBS (CHON BURI/SATTAH, TH)
Text: TAF VTBS 251100Z 2512/2618 20008KT 9999 FEW020
Forecast period: 1200 UTC 25 May 2020 to 1800 UTC 26 May 2020
Forecast type: FROM: standard forecast or significant change
Winds: from the SSW (200 degrees) at 9 MPH (8 knots; 4.1 m/s)
Visibility: 6 or more miles 10+ km)
Ceiling: at least 12,000 feet AGL
Clouds: few clouds at 2000 feet AGL
Weather: no significant weather forecast for this period
Text: TEMPO 2607/2611 23015KT 6000 -TSRA FEW018CB SCT030 BKN100
Forecast period: 0700 to 1100 UTC 26 May 2020
Forecast type: TEMPORARY: The following changes expected for less than half the time period
Winds: from the SW (230 degrees) at 17 MPH (15 knots; 7.7 m/s)
Visibility: 4 miles (6 km)
Ceiling: 10000 feet AGL
Clouds: few clouds at 1800 feet AGL
scattered clouds at 3000 feet AGL
broken clouds at 10000 feet AGL
Weather: -TSRA  (light rain associated with thunderstorm(s))

 AIRPORT MAP

 RUNWAY INFORMATION
Runway 01L Runway length 12139 ft Runway width 197 ft
Runway elevation 0 ft Runway displaced threshold 0 ft Runway heading 14
Runway 19R Runway length 12139 ft Runway width 197 ft
Runway elevation 0 ft Runway displaced threshold 0 ft Runway heading 194
Runway 01R Runway length 13123 ft Runway width 197 ft
Runway elevation 0 ft Runway displaced threshold 0 ft Runway heading 14
Runway 19L Runway length 13123 ft Runway width 197 ft
Runway elevation 0 ft Runway displaced threshold 0 ft Runway heading 194

 AIRPORT FREQUENCIES
Type ATIS Name Frequency 127.8 MHZ
Type GROUND (EA Name Frequency 121.65 MHZ
Type GROUND (MA Name Frequency 121.75 MHZ
Type GROUND (WE Name Frequency 121.95 MHZ
Type TOWER (01L Name Frequency 119 MHZ
Type TOWER (01R Name Frequency 118.2 MHZ

 AIRPORT NEAR NAVIGATION AIDS
Type VOR-DME Name Suvarnabhumi Intl Frequency 111400 KHZ



Powered by Virtual Airlines Manager [v2.6.2]